sensor_id;sensor_type;location;lat;lon;timestamp;pressure;altitude;pressure_sealevel;temperature;humidity
21102;BME280;10709;49.006;12.100;2023-02-18T00:01:30;48847.91;;;-146.00;100.00
21102;BME280;10709;49.006;12.100;2023-02-18T00:03:58;48847.91;;;-146.00;100.00
21102;BME280;10709;49.006;12.100;2023-02-18T00:06:27;48847.91;;;-146.00;100.00
21102;BME280;10709;49.006;12.100;2023-02-18T00:08:54;48847.91;;;-146.00;100.00
21102;BME280;10709;49.006;12.100;2023-02-18T00:11:22;48847.91;;;-146.00;100.00
21102;BME280;10709;49.006;12.100;2023-02-18T00:13:58;48847.91;;;-146.00;100.00
21102;BME280;10709;49.006;12.100;2023-02-18T00:16:26;48849.88;;;-146.00;100.00
21102;BME280;10709;49.006;12.100;2023-02-18T00:19:00;48845.94;;;-146.00;100.00
21102;BME280;10709;49.006;12.100;2023-02-18T00:21:28;48847.91;;;-146.00;100.00
21102;BME280;10709;49.006;12.100;2023-02-18T00:23:54;48847.91;;;-146.00;100.00
21102;BME280;10709;49.006;12.100;2023-02-18T00:26:21;48847.91;;;-146.00;100.00
21102;BME280;10709;49.006;12.100;2023-02-18T00:28:48;48847.91;;;-146.00;100.00
21102;BME280;10709;49.006;12.100;2023-02-18T00:31:18;48845.94;;;-146.00;100.00
21102;BME280;10709;49.006;12.100;2023-02-18T00:33:45;48844.00;;;-146.00;100.00
21102;BME280;10709;49.006;12.100;2023-02-18T00:36:14;48849.88;;;-146.00;100.00
21102;BME280;10709;49.006;12.100;2023-02-18T00:38:48;48847.91;;;-146.00;100.00
21102;BME280;10709;49.006;12.100;2023-02-18T00:41:16;48849.88;;;-146.00;100.00
21102;BME280;10709;49.006;12.100;2023-02-18T00:43:43;48845.94;;;-146.00;100.00
21102;BME280;10709;49.006;12.100;2023-02-18T00:46:10;48847.91;;;-146.00;100.00
21102;BME280;10709;49.006;12.100;2023-02-18T00:48:37;48847.91;;;-146.00;100.00
21102;BME280;10709;49.006;12.100;2023-02-18T00:51:04;48845.94;;;-146.00;100.00
21102;BME280;10709;49.006;12.100;2023-02-18T00:53:31;48844.00;;;-146.00;100.00
21102;BME280;10709;49.006;12.100;2023-02-18T00:55:58;48847.91;;;-146.00;100.00
21102;BME280;10709;49.006;12.100;2023-02-18T00:58:25;48849.88;;;-146.00;100.00
21102;BME280;10709;49.006;12.100;2023-02-18T01:00:53;48844.00;;;-146.00;100.00
21102;BME280;10709;49.006;12.100;2023-02-18T01:03:20;48845.94;;;-146.00;100.00
21102;BME280;10709;49.006;12.100;2023-02-18T01:05:47;48844.00;;;-146.00;100.00
21102;BME280;10709;49.006;12.100;2023-02-18T01:08:16;48840.06;;;-146.00;100.00
21102;BME280;10709;49.006;12.100;2023-02-18T01:10:45;48844.00;;;-146.00;100.00
21102;BME280;10709;49.006;12.100;2023-02-18T01:13:13;48851.81;;;-146.00;100.00
21102;BME280;10709;49.006;12.100;2023-02-18T01:15:41;48844.00;;;-146.00;100.00
21102;BME280;10709;49.006;12.100;2023-02-18T01:18:08;48847.91;;;-146.00;100.00
21102;BME280;10709;49.006;12.100;2023-02-18T01:20:36;48847.91;;;-146.00;100.00
21102;BME280;10709;49.006;12.100;2023-02-18T01:23:03;48853.78;;;-146.00;100.00
21102;BME280;10709;49.006;12.100;2023-02-18T01:25:30;48847.91;;;-146.00;100.00
21102;BME280;10709;49.006;12.100;2023-02-18T01:27:57;48847.91;;;-146.00;100.00
21102;BME280;10709;49.006;12.100;2023-02-18T01:30:23;48851.81;;;-146.00;100.00
21102;BME280;10709;49.006;12.100;2023-02-18T01:32:50;48851.81;;;-146.00;100.00
21102;BME280;10709;49.006;12.100;2023-02-18T01:35:18;48847.91;;;-146.00;100.00
21102;BME280;10709;49.006;12.100;2023-02-18T01:37:45;48847.91;;;-146.00;100.00
21102;BME280;10709;49.006;12.100;2023-02-18T01:40:14;48847.91;;;-146.00;100.00
21102;BME280;10709;49.006;12.100;2023-02-18T01:42:41;48847.91;;;-146.00;100.00
21102;BME280;10709;49.006;12.100;2023-02-18T01:45:51;48847.91;;;-146.00;100.00
21102;BME280;10709;49.006;12.100;2023-02-18T01:48:28;48847.91;;;-146.00;100.00
21102;BME280;10709;49.006;12.100;2023-02-18T01:51:02;48851.81;;;-146.00;100.00
21102;BME280;10709;49.006;12.100;2023-02-18T01:53:35;48847.91;;;-146.00;100.00
21102;BME280;10709;49.006;12.100;2023-02-18T01:56:05;48847.91;;;-146.00;100.00
21102;BME280;10709;49.006;12.100;2023-02-18T01:58:34;48849.88;;;-146.00;100.00
21102;BME280;10709;49.006;12.100;2023-02-18T02:01:01;48844.00;;;-146.00;100.00
21102;BME280;10709;49.006;12.100;2023-02-18T02:03:28;48847.91;;;-146.00;100.00
21102;BME280;10709;49.006;12.100;2023-02-18T02:05:54;48845.94;;;-146.00;100.00
21102;BME280;10709;49.006;12.100;2023-02-18T02:08:21;48845.94;;;-146.00;100.00
21102;BME280;10709;49.006;12.100;2023-02-18T02:19:01;48847.91;;;-146.00;100.00
21102;BME280;10709;49.006;12.100;2023-02-18T02:27:14;48844.00;;;-146.00;100.00
21102;BME280;10709;49.006;12.100;2023-02-18T02:35:31;48845.94;;;-146.00;100.00
21102;BME280;10709;49.006;12.100;2023-02-18T02:38:11;48844.00;;;-146.00;100.00
21102;BME280;10709;49.006;12.100;2023-02-18T02:40:53;48845.94;;;-146.00;100.00
21102;BME280;10709;49.006;12.100;2023-02-18T02:43:48;48845.94;;;-146.00;100.00
21102;BME280;10709;49.006;12.100;2023-02-18T02:46:28;48844.00;;;-146.00;100.00
21102;BME280;10709;49.006;12.100;2023-02-18T02:54:21;48844.00;;;-146.00;100.00
21102;BME280;10709;49.006;12.100;2023-02-18T02:56:49;48844.00;;;-146.00;100.00
21102;BME280;10709;49.006;12.100;2023-02-18T02:59:20;48840.06;;;-146.00;100.00
21102;BME280;10709;49.006;12.100;2023-02-18T03:07:18;48844.00;;;-146.00;100.00
21102;BME280;10709;49.006;12.100;2023-02-18T03:12:32;48844.00;;;-146.00;100.00
21102;BME280;10709;49.006;12.100;2023-02-18T03:15:07;48844.00;;;-146.00;100.00
21102;BME280;10709;49.006;12.100;2023-02-18T03:18:03;48844.00;;;-146.00;100.00
21102;BME280;10709;49.006;12.100;2023-02-18T03:20:38;48842.03;;;-146.00;100.00
21102;BME280;10709;49.006;12.100;2023-02-18T03:23:11;48847.91;;;-146.00;100.00
21102;BME280;10709;49.006;12.100;2023-02-18T03:25:41;48845.94;;;-146.00;100.00
21102;BME280;10709;49.006;12.100;2023-02-18T03:28:11;48842.03;;;-146.00;100.00
21102;BME280;10709;49.006;12.100;2023-02-18T03:30:41;48845.94;;;-146.00;100.00
21102;BME280;10709;49.006;12.100;2023-02-18T03:33:10;48847.91;;;-146.00;100.00
21102;BME280;10709;49.006;12.100;2023-02-18T03:35:40;48840.06;;;-146.00;100.00
21102;BME280;10709;49.006;12.100;2023-02-18T03:40:35;48844.00;;;-146.00;100.00
21102;BME280;10709;49.006;12.100;2023-02-18T03:43:01;48847.91;;;-146.00;100.00
21102;BME280;10709;49.006;12.100;2023-02-18T03:45:28;48844.00;;;-146.00;100.00
21102;BME280;10709;49.006;12.100;2023-02-18T03:47:55;48842.03;;;-146.00;100.00
21102;BME280;10709;49.006;12.100;2023-02-18T03:50:21;48844.00;;;-146.00;100.00
21102;BME280;10709;49.006;12.100;2023-02-18T03:52:48;48847.91;;;-146.00;100.00
21102;BME280;10709;49.006;12.100;2023-02-18T03:55:14;48844.00;;;-146.00;100.00
21102;BME280;10709;49.006;12.100;2023-02-18T03:57:40;48845.94;;;-146.00;100.00
21102;BME280;10709;49.006;12.100;2023-02-18T04:00:08;48844.00;;;-146.00;100.00
21102;BME280;10709;49.006;12.100;2023-02-18T04:02:36;48847.91;;;-146.00;100.00
21102;BME280;10709;49.006;12.100;2023-02-18T04:05:03;48847.91;;;-146.00;100.00
21102;BME280;10709;49.006;12.100;2023-02-18T04:07:29;48847.91;;;-146.00;100.00
21102;BME280;10709;49.006;12.100;2023-02-18T04:09:55;48847.91;;;-146.00;100.00
21102;BME280;10709;49.006;12.100;2023-02-18T04:12:22;48845.94;;;-146.00;100.00
21102;BME280;10709;49.006;12.100;2023-02-18T04:14:49;48847.91;;;-146.00;100.00
21102;BME280;10709;49.006;12.100;2023-02-18T04:17:16;48847.91;;;-146.00;100.00
21102;BME280;10709;49.006;12.100;2023-02-18T04:19:42;48849.88;;;-146.00;100.00
21102;BME280;10709;49.006;12.100;2023-02-18T04:22:09;48847.91;;;-146.00;100.00
21102;BME280;10709;49.006;12.100;2023-02-18T04:24:36;48845.94;;;-146.00;100.00
21102;BME280;10709;49.006;12.100;2023-02-18T04:27:02;48847.91;;;-146.00;100.00
21102;BME280;10709;49.006;12.100;2023-02-18T04:29:29;48853.78;;;-146.00;100.00
21102;BME280;10709;49.006;12.100;2023-02-18T04:31:55;48847.91;;;-146.00;100.00
21102;BME280;10709;49.006;12.100;2023-02-18T04:34:22;48847.91;;;-146.00;100.00
21102;BME280;10709;49.006;12.100;2023-02-18T04:36:48;48849.88;;;-146.00;100.00
21102;BME280;10709;49.006;12.100;2023-02-18T04:39:15;48847.91;;;-146.00;100.00
21102;BME280;10709;49.006;12.100;2023-02-18T04:41:41;48851.81;;;-146.00;100.00
21102;BME280;10709;49.006;12.100;2023-02-18T04:44:08;48849.88;;;-146.00;100.00
21102;BME280;10709;49.006;12.100;2023-02-18T04:46:35;48847.91;;;-146.00;100.00
21102;BME280;10709;49.006;12.100;2023-02-18T04:49:01;48851.81;;;-146.00;100.00
21102;BME280;10709;49.006;12.100;2023-02-18T04:51:28;48847.91;;;-146.00;100.00
21102;BME280;10709;49.006;12.100;2023-02-18T04:53:54;48849.88;;;-146.00;100.00
21102;BME280;10709;49.006;12.100;2023-02-18T04:56:21;48851.81;;;-146.00;100.00
21102;BME280;10709;49.006;12.100;2023-02-18T04:58:47;48847.91;;;-146.00;100.00
21102;BME280;10709;49.006;12.100;2023-02-18T05:01:14;48847.91;;;-146.00;100.00
21102;BME280;10709;49.006;12.100;2023-02-18T05:03:40;48845.94;;;-146.00;100.00
21102;BME280;10709;49.006;12.100;2023-02-18T05:06:07;48847.91;;;-146.00;100.00
21102;BME280;10709;49.006;12.100;2023-02-18T05:08:33;48847.91;;;-146.00;100.00
21102;BME280;10709;49.006;12.100;2023-02-18T05:11:04;48847.91;;;-146.00;100.00
21102;BME280;10709;49.006;12.100;2023-02-18T05:13:31;48840.06;;;-146.00;100.00
21102;BME280;10709;49.006;12.100;2023-02-18T05:15:57;48844.00;;;-146.00;100.00
21102;BME280;10709;49.006;12.100;2023-02-18T05:18:24;48847.91;;;-146.00;100.00
21102;BME280;10709;49.006;12.100;2023-02-18T05:20:51;48842.03;;;-146.00;100.00
21102;BME280;10709;49.006;12.100;2023-02-18T05:23:17;48840.06;;;-146.00;100.00
21102;BME280;10709;49.006;12.100;2023-02-18T05:25:46;48844.00;;;-146.00;100.00
21102;BME280;10709;49.006;12.100;2023-02-18T05:28:12;48840.06;;;-146.00;100.00
21102;BME280;10709;49.006;12.100;2023-02-18T05:30:39;48845.94;;;-146.00;100.00
21102;BME280;10709;49.006;12.100;2023-02-18T05:33:05;48840.06;;;-146.00;100.00
21102;BME280;10709;49.006;12.100;2023-02-18T05:35:32;48836.16;;;-146.00;100.00
21102;BME280;10709;49.006;12.100;2023-02-18T05:37:59;48838.09;;;-146.00;100.00
21102;BME280;10709;49.006;12.100;2023-02-18T05:40:25;48842.03;;;-146.00;100.00
21102;BME280;10709;49.006;12.100;2023-02-18T05:42:51;48845.94;;;-146.00;100.00
21102;BME280;10709;49.006;12.100;2023-02-18T05:45:18;48840.06;;;-146.00;100.00
21102;BME280;10709;49.006;12.100;2023-02-18T05:47:44;48844.00;;;-146.00;100.00
21102;BME280;10709;49.006;12.100;2023-02-18T05:50:11;48844.00;;;-146.00;100.00
21102;BME280;10709;49.006;12.100;2023-02-18T05:52:38;48840.06;;;-146.00;100.00
21102;BME280;10709;49.006;12.100;2023-02-18T05:55:05;48844.00;;;-146.00;100.00
21102;BME280;10709;49.006;12.100;2023-02-18T05:57:31;48845.94;;;-146.00;100.00
21102;BME280;10709;49.006;12.100;2023-02-18T05:59:58;48844.00;;;-146.00;100.00
21102;BME280;10709;49.006;12.100;2023-02-18T06:02:25;48847.91;;;-146.00;100.00
21102;BME280;10709;49.006;12.100;2023-02-18T06:04:52;48844.00;;;-146.00;100.00
21102;BME280;10709;49.006;12.100;2023-02-18T06:07:18;48847.91;;;-146.00;100.00
21102;BME280;10709;49.006;12.100;2023-02-18T06:09:46;48845.94;;;-146.00;100.00
21102;BME280;10709;49.006;12.100;2023-02-18T06:12:12;48844.00;;;-146.00;100.00
21102;BME280;10709;49.006;12.100;2023-02-18T06:14:39;48847.91;;;-146.00;100.00
21102;BME280;10709;49.006;12.100;2023-02-18T06:17:08;48844.00;;;-146.00;100.00
21102;BME280;10709;49.006;12.100;2023-02-18T06:19:36;48847.91;;;-146.00;100.00
21102;BME280;10709;49.006;12.100;2023-02-18T06:22:03;48849.88;;;-146.00;100.00
21102;BME280;10709;49.006;12.100;2023-02-18T06:24:30;48847.91;;;-146.00;100.00
21102;BME280;10709;49.006;12.100;2023-02-18T06:26:56;48849.88;;;-146.00;100.00
21102;BME280;10709;49.006;12.100;2023-02-18T06:29:23;48844.00;;;-146.00;100.00
21102;BME280;10709;49.006;12.100;2023-02-18T06:31:49;48844.00;;;-146.00;100.00
21102;BME280;10709;49.006;12.100;2023-02-18T06:34:16;48847.91;;;-146.00;100.00
21102;BME280;10709;49.006;12.100;2023-02-18T06:36:42;48849.88;;;-146.00;100.00
21102;BME280;10709;49.006;12.100;2023-02-18T06:39:09;48845.94;;;-146.00;100.00
21102;BME280;10709;49.006;12.100;2023-02-18T06:41:36;48847.91;;;-146.00;100.00
21102;BME280;10709;49.006;12.100;2023-02-18T06:44:02;48849.88;;;-146.00;100.00
21102;BME280;10709;49.006;12.100;2023-02-18T06:46:29;48844.00;;;-146.00;100.00
21102;BME280;10709;49.006;12.100;2023-02-18T06:48:55;48844.00;;;-146.00;100.00
21102;BME280;10709;49.006;12.100;2023-02-18T06:51:22;48844.00;;;-146.00;100.00
21102;BME280;10709;49.006;12.100;2023-02-18T06:53:49;48844.00;;;-146.00;100.00
21102;BME280;10709;49.006;12.100;2023-02-18T06:56:15;48840.06;;;-146.00;100.00
21102;BME280;10709;49.006;12.100;2023-02-18T06:58:42;48840.06;;;-146.00;100.00
21102;BME280;10709;49.006;12.100;2023-02-18T07:01:09;48844.00;;;-146.00;100.00
21102;BME280;10709;49.006;12.100;2023-02-18T07:03:35;48844.00;;;-146.00;100.00
21102;BME280;10709;49.006;12.100;2023-02-18T07:06:02;48844.00;;;-146.00;100.00
21102;BME280;10709;49.006;12.100;2023-02-18T07:08:28;48840.06;;;-146.00;100.00
21102;BME280;10709;49.006;12.100;2023-02-18T07:10:56;48840.06;;;-146.00;100.00
21102;BME280;10709;49.006;12.100;2023-02-18T07:13:22;48836.16;;;-146.00;100.00
21102;BME280;10709;49.006;12.100;2023-02-18T07:15:48;48842.03;;;-146.00;100.00
21102;BME280;10709;49.006;12.100;2023-02-18T07:18:15;48840.06;;;-146.00;100.00
21102;BME280;10709;49.006;12.100;2023-02-18T07:20:41;48838.09;;;-146.00;100.00
21102;BME280;10709;49.006;12.100;2023-02-18T07:23:08;48840.06;;;-146.00;100.00
21102;BME280;10709;49.006;12.100;2023-02-18T07:25:36;48838.09;;;-146.00;100.00
21102;BME280;10709;49.006;12.100;2023-02-18T07:28:03;48836.16;;;-146.00;100.00
21102;BME280;10709;49.006;12.100;2023-02-18T07:30:29;48836.16;;;-146.00;100.00
21102;BME280;10709;49.006;12.100;2023-02-18T07:32:56;48840.06;;;-146.00;100.00
21102;BME280;10709;49.006;12.100;2023-02-18T07:35:22;48836.16;;;-146.00;100.00
21102;BME280;10709;49.006;12.100;2023-02-18T07:37:49;48836.16;;;-146.00;100.00
21102;BME280;10709;49.006;12.100;2023-02-18T07:40:19;48836.16;;;-146.00;100.00
21102;BME280;10709;49.006;12.100;2023-02-18T07:42:47;48836.16;;;-146.00;100.00
21102;BME280;10709;49.006;12.100;2023-02-18T07:45:14;48838.09;;;-146.00;100.00
21102;BME280;10709;49.006;12.100;2023-02-18T07:47:40;48838.09;;;-146.00;100.00
21102;BME280;10709;49.006;12.100;2023-02-18T07:50:08;48836.16;;;-146.00;100.00
21102;BME280;10709;49.006;12.100;2023-02-18T07:52:35;48838.09;;;-146.00;100.00
21102;BME280;10709;49.006;12.100;2023-02-18T07:55:01;48836.16;;;-146.00;100.00
21102;BME280;10709;49.006;12.100;2023-02-18T07:57:28;48836.16;;;-146.00;100.00
21102;BME280;10709;49.006;12.100;2023-02-18T07:59:54;48834.19;;;-146.00;100.00
21102;BME280;10709;49.006;12.100;2023-02-18T08:02:22;48840.06;;;-146.00;100.00
21102;BME280;10709;49.006;12.100;2023-02-18T08:04:49;48840.06;;;-146.00;100.00
21102;BME280;10709;49.006;12.100;2023-02-18T08:07:18;48838.09;;;-146.00;100.00
21102;BME280;10709;49.006;12.100;2023-02-18T08:09:45;48844.00;;;-146.00;100.00
21102;BME280;10709;49.006;12.100;2023-02-18T08:12:12;48838.09;;;-146.00;100.00
21102;BME280;10709;49.006;12.100;2023-02-18T08:14:39;48842.03;;;-146.00;100.00
21102;BME280;10709;49.006;12.100;2023-02-18T08:17:06;48847.91;;;-146.00;100.00
21102;BME280;10709;49.006;12.100;2023-02-18T08:19:33;48842.03;;;-146.00;100.00
21102;BME280;10709;49.006;12.100;2023-02-18T08:22:01;48844.00;;;-146.00;100.00
21102;BME280;10709;49.006;12.100;2023-02-18T08:24:28;48844.00;;;-146.00;100.00
21102;BME280;10709;49.006;12.100;2023-02-18T08:26:54;48840.06;;;-146.00;100.00
21102;BME280;10709;49.006;12.100;2023-02-18T08:29:27;48840.06;;;-146.00;100.00
21102;BME280;10709;49.006;12.100;2023-02-18T08:31:53;48842.03;;;-146.00;100.00
21102;BME280;10709;49.006;12.100;2023-02-18T08:34:22;48844.00;;;-146.00;100.00
21102;BME280;10709;49.006;12.100;2023-02-18T08:36:48;48840.06;;;-146.00;100.00
21102;BME280;10709;49.006;12.100;2023-02-18T08:39:15;48844.00;;;-146.00;100.00
21102;BME280;10709;49.006;12.100;2023-02-18T08:41:41;48844.00;;;-146.00;100.00
21102;BME280;10709;49.006;12.100;2023-02-18T08:44:08;48842.03;;;-146.00;100.00
21102;BME280;10709;49.006;12.100;2023-02-18T08:46:34;48847.91;;;-146.00;100.00
21102;BME280;10709;49.006;12.100;2023-02-18T08:49:03;48840.06;;;-146.00;100.00
21102;BME280;10709;49.006;12.100;2023-02-18T08:51:29;48847.91;;;-146.00;100.00
21102;BME280;10709;49.006;12.100;2023-02-18T08:53:56;48847.91;;;-146.00;100.00
21102;BME280;10709;49.006;12.100;2023-02-18T08:56:25;48849.88;;;-146.00;100.00
21102;BME280;10709;49.006;12.100;2023-02-18T08:58:52;48847.91;;;-146.00;100.00
21102;BME280;10709;49.006;12.100;2023-02-18T09:01:18;48847.91;;;-146.00;100.00
21102;BME280;10709;49.006;12.100;2023-02-18T09:03:46;48859.66;;;-146.00;100.00
21102;BME280;10709;49.006;12.100;2023-02-18T09:06:13;48855.75;;;-146.00;100.00
21102;BME280;10709;49.006;12.100;2023-02-18T09:08:40;48861.63;;;-146.00;100.00
21102;BME280;10709;49.006;12.100;2023-02-18T09:11:06;48863.56;;;-146.00;100.00
21102;BME280;10709;49.006;12.100;2023-02-18T09:13:33;48859.66;;;-146.00;100.00
21102;BME280;10709;49.006;12.100;2023-02-18T09:16:06;48879.25;;;-146.00;100.00
21102;BME280;10709;49.006;12.100;2023-02-18T09:18:34;48887.09;;;-146.00;100.00
21102;BME280;10709;49.006;12.100;2023-02-18T09:21:03;48883.16;;;-146.00;100.00
21102;BME280;10709;49.006;12.100;2023-02-18T09:23:31;48906.69;;;-146.00;100.00
21102;BME280;10709;49.006;12.100;2023-02-18T09:25:58;48908.63;;;-146.00;100.00
21102;BME280;10709;49.006;12.100;2023-02-18T09:28:25;48906.69;;;-146.00;100.00
21102;BME280;10709;49.006;12.100;2023-02-18T09:30:52;48918.44;;;-146.00;100.00
21102;BME280;10709;49.006;12.100;2023-02-18T09:33:18;48926.25;;;-146.00;100.00
21102;BME280;10709;49.006;12.100;2023-02-18T09:35:45;48938.03;;;-146.00;100.00
21102;BME280;10709;49.006;12.100;2023-02-18T09:38:15;48945.84;;;-146.00;100.00
21102;BME280;10709;49.006;12.100;2023-02-18T09:40:44;48945.84;;;-146.00;100.00
21102;BME280;10709;49.006;12.100;2023-02-18T09:43:42;48957.59;;;-146.00;100.00
21102;BME280;10709;49.006;12.100;2023-02-18T09:46:38;48961.53;;;-146.00;100.00
21102;BME280;10709;49.006;12.100;2023-02-18T09:49:15;48955.66;;;-146.00;100.00
21102;BME280;10709;49.006;12.100;2023-02-18T09:51:43;48953.69;;;-146.00;100.00
21102;BME280;10709;49.006;12.100;2023-02-18T09:54:15;48961.53;;;-146.00;100.00
21102;BME280;10709;49.006;12.100;2023-02-18T09:56:43;48969.38;;;-146.00;100.00
21102;BME280;10709;49.006;12.100;2023-02-18T09:59:15;48965.44;;;-146.00;100.00
21102;BME280;10709;49.006;12.100;2023-02-18T10:01:44;48973.28;;;-146.00;100.00
21102;BME280;10709;49.006;12.100;2023-02-18T10:04:18;48988.94;;;-146.00;100.00
21102;BME280;10709;49.006;12.100;2023-02-18T10:06:47;48977.19;;;-146.00;100.00
21102;BME280;10709;49.006;12.100;2023-02-18T10:09:33;48981.13;;;-146.00;100.00
21102;BME280;10709;49.006;12.100;2023-02-18T10:14:33;48992.88;;;-146.00;100.00
21102;BME280;10709;49.006;12.100;2023-02-18T10:17:01;48994.84;;;-146.00;100.00
21102;BME280;10709;49.006;12.100;2023-02-18T10:19:35;49002.66;;;-146.00;100.00
21102;BME280;10709;49.006;12.100;2023-02-18T10:22:04;49020.31;;;-146.00;100.00
21102;BME280;10709;49.006;12.100;2023-02-18T10:24:44;49010.50;;;-146.00;100.00
21102;BME280;10709;49.006;12.100;2023-02-18T10:27:17;49016.38;;;-146.00;100.00
21102;BME280;10709;49.006;12.100;2023-02-18T10:29:47;49004.63;;;-146.00;100.00
21102;BME280;10709;49.006;12.100;2023-02-18T10:35:02;49016.38;;;-146.00;100.00
21102;BME280;10709;49.006;12.100;2023-02-18T10:37:56;49024.22;;;-146.00;100.00
21102;BME280;10709;49.006;12.100;2023-02-18T10:46:14;49024.22;;;-146.00;100.00
21102;BME280;10709;49.006;12.100;2023-02-18T10:51:27;49059.47;;;-146.00;100.00
21102;BME280;10709;49.006;12.100;2023-02-18T10:53:54;49063.41;;;-146.00;100.00
21102;BME280;10709;49.006;12.100;2023-02-18T10:56:37;49063.41;;;-146.00;100.00
21102;BME280;10709;49.006;12.100;2023-02-18T10:59:10;49053.59;;;-146.00;100.00
21102;BME280;10709;49.006;12.100;2023-02-18T11:01:37;49059.47;;;-146.00;100.00
21102;BME280;10709;49.006;12.100;2023-02-18T11:04:17;49059.47;;;-146.00;100.00
21102;BME280;10709;49.006;12.100;2023-02-18T11:06:50;49075.16;;;-146.00;100.00
21102;BME280;10709;49.006;12.100;2023-02-18T11:11:50;49051.66;;;-146.00;100.00
21102;BME280;10709;49.006;12.100;2023-02-18T11:14:41;49053.59;;;-146.00;100.00
21102;BME280;10709;49.006;12.100;2023-02-18T11:17:24;49086.91;;;-146.00;100.00
21102;BME280;10709;49.006;12.100;2023-02-18T11:19:54;49092.78;;;-146.00;100.00
21102;BME280;10709;49.006;12.100;2023-02-18T11:22:30;49090.81;;;-146.00;100.00
21102;BME280;10709;49.006;12.100;2023-02-18T11:25:00;49086.91;;;-146.00;100.00
21102;BME280;10709;49.006;12.100;2023-02-18T11:27:41;49086.91;;;-146.00;100.00
21102;BME280;10709;49.006;12.100;2023-02-18T11:30:34;49083.00;;;-146.00;100.00
21102;BME280;10709;49.006;12.100;2023-02-18T11:33:09;49079.06;;;-146.00;100.00
21102;BME280;10709;49.006;12.100;2023-02-18T11:35:48;49094.75;;;-146.00;99.21
21102;BME280;10709;49.006;12.100;2023-02-18T11:38:26;49094.75;;;-146.00;99.08
21102;BME280;10709;49.006;12.100;2023-02-18T11:40:55;49106.50;;;-146.00;98.29
21102;BME280;10709;49.006;12.100;2023-02-18T11:43:27;49079.06;;;-146.00;98.98
21102;BME280;10709;49.006;12.100;2023-02-18T11:46:18;49124.13;;;-146.00;98.13
21102;BME280;10709;49.006;12.100;2023-02-18T11:48:45;49130.00;;;-146.00;97.61
21102;BME280;10709;49.006;12.100;2023-02-18T11:51:18;49139.81;;;-146.00;96.53
21102;BME280;10709;49.006;12.100;2023-02-18T11:53:59;49128.06;;;-146.00;97.47
21102;BME280;10709;49.006;12.100;2023-02-18T11:56:29;49098.66;;;-146.00;96.90
21102;BME280;10709;49.006;12.100;2023-02-18T11:58:57;49161.34;;;-146.00;95.92
21102;BME280;10709;49.006;12.100;2023-02-18T12:04:16;49167.22;;;-146.00;88.75
21102;BME280;10709;49.006;12.100;2023-02-18T12:06:51;49177.03;;;-146.00;88.54
21102;BME280;10709;49.006;12.100;2023-02-18T12:09:26;49200.53;;;-146.00;84.90
21102;BME280;10709;49.006;12.100;2023-02-18T12:14:49;49192.69;;;-146.00;85.31
21102;BME280;10709;49.006;12.100;2023-02-18T12:21:04;49149.59;;;-146.00;82.04
21102;BME280;10709;49.006;12.100;2023-02-18T12:26:28;49067.31;;;-146.00;75.90
21102;BME280;10709;49.006;12.100;2023-02-18T12:31:56;49039.88;;;-146.00;75.58
21102;BME280;10709;49.006;12.100;2023-02-18T12:34:38;49065.34;;;-146.00;74.98
21102;BME280;10709;49.006;12.100;2023-02-18T12:54:03;48992.88;;;-146.00;73.06
21102;BME280;10709;49.006;12.100;2023-02-18T13:02:22;48965.44;;;-146.00;72.31
21102;BME280;10709;49.006;12.100;2023-02-18T13:13:02;49008.53;;;-146.00;73.25
21102;BME280;10709;49.006;12.100;2023-02-18T13:18:00;48957.59;;;-146.00;73.46
21102;BME280;10709;49.006;12.100;2023-02-18T13:20:44;49028.13;;;-146.00;73.43
21102;BME280;10709;49.006;12.100;2023-02-18T13:23:17;48996.78;;;-146.00;74.24
21102;BME280;10709;49.006;12.100;2023-02-18T13:25:45;48996.78;;;-146.00;73.16
21102;BME280;10709;49.006;12.100;2023-02-18T13:28:25;48981.13;;;-146.00;72.79
21102;BME280;10709;49.006;12.100;2023-02-18T13:34:04;48992.88;;;-146.00;72.83
21102;BME280;10709;49.006;12.100;2023-02-18T13:39:33;49004.63;;;-146.00;73.90
21102;BME280;10709;49.006;12.100;2023-02-18T13:47:41;48967.41;;;-146.00;73.87
21102;BME280;10709;49.006;12.100;2023-02-18T13:53:17;48957.59;;;-146.00;74.82
21102;BME280;10709;49.006;12.100;2023-02-18T13:55:52;48994.84;;;-146.00;74.19
21102;BME280;10709;49.006;12.100;2023-02-18T13:58:22;48996.78;;;-146.00;74.39
21102;BME280;10709;49.006;12.100;2023-02-18T14:01:02;49004.63;;;-146.00;73.90
21102;BME280;10709;49.006;12.100;2023-02-18T14:05:56;49016.38;;;-146.00;75.21
21102;BME280;10709;49.006;12.100;2023-02-18T14:08:43;49008.53;;;-146.00;74.65
21102;BME280;10709;49.006;12.100;2023-02-18T14:13:55;48988.94;;;-146.00;75.13
21102;BME280;10709;49.006;12.100;2023-02-18T14:22:47;48975.25;;;-146.00;74.20
21102;BME280;10709;49.006;12.100;2023-02-18T14:27:51;48977.19;;;-146.00;73.37
21102;BME280;10709;49.006;12.100;2023-02-18T14:32:50;48994.84;;;-146.00;73.27
21102;BME280;10709;49.006;12.100;2023-02-18T14:35:39;48961.53;;;-146.00;73.97
21102;BME280;10709;49.006;12.100;2023-02-18T14:41:10;48985.03;;;-146.00;71.51
21102;BME280;10709;49.006;12.100;2023-02-18T14:43:45;48945.84;;;-146.00;73.07
21102;BME280;10709;49.006;12.100;2023-02-18T14:46:31;48953.69;;;-146.00;70.54
21102;BME280;10709;49.006;12.100;2023-02-18T14:49:16;48961.53;;;-146.00;70.76
21102;BME280;10709;49.006;12.100;2023-02-18T14:51:45;48941.94;;;-146.00;70.83